KCRW/CRW METAR and TAF weather

Enter ICAO airport designator
Station Type Date Time Source
KCRW METAR 2019/06/26 21:54 UTC NOAA

KCRW 262154Z 27004KT 10SM FEW070 31/19 A3014 RMK AO2 SLP196 T03060189


Station Type Date Time Source
KCRW Decoded METAR 2019/06/26 21:54 UTC NOAA

YEAGER AIRPORT, WV, United States (KCRW) 38-22N 081-36W 309M
Jun 26, 2019 - 05:54 PM EDT / 2019.06.26 2154 UTC
Wind: from the W (270 degrees) at 5 MPH (4 KT):0
Visibility: 10 mile(s):0
Sky conditions: mostly clear
Temperature: 87.1 F (30.6 C)
Dew Point: 66.0 F (18.9 C)
Relative Humidity: 49%
Pressure (altimeter): 30.14 in. Hg (1020 hPa)
ob: KCRW 262154Z 27004KT 10SM FEW070 31/19 A3014 RMK AO2 SLP196 T03060189
cycle: 22

Station Type Date Time Source
KCRW TAF 2019/06/26 18:36 UTC NOAA

TAF KCRW 261733Z 2618/2718 24005KT P6SM FEW150
FM270800 00000KT 1/4SM FG BKN001
FM271300 22002KT P6SM FEW045

Example: see airport list